Time;durP1;ratioP1;P1;durP2;ratioP2;P2;SDS_P1;SDS_P2;PMS_P1;PMS_P2;Temp;Humidity;BMP_temperature;BMP_pressure;BME280_temperature;BME280_humidity;BME280_pressure;Samples;Min_cycle;Max_cycle;Signal;HPM_P1;HPM_P2
2023/03/27 00:01:01;;;;;;;42.10;20.87;;;;;;;;;;6293903;28;20031;-86
2023/03/27 00:04:01;;;;;;;40.37;22.63;;;;;;;;;;6290429;28;20012;-86
2023/03/27 00:07:02;;;;;;;39.13;21.07;;;;;;;;;;6291343;28;20033;-86
2023/03/27 00:10:02;;;;;;;36.30;20.17;;;;;;;;;;6272329;28;20020;-86
2023/03/27 00:13:03;;;;;;;36.20;17.43;;;;;;;;;;6293499;28;20021;-86
2023/03/27 00:16:04;;;;;;;29.03;16.33;;;;;;;;;;6294197;28;20025;-87
2023/03/27 00:19:05;;;;;;;27.67;16.20;;;;;;;;;;6293699;28;20282;-85
2023/03/27 00:22:06;;;;;;;31.63;15.70;;;;;;;;;;6292934;28;20569;-83
2023/03/27 00:25:07;;;;;;;28.38;14.60;;;;;;;;;;6286485;28;20475;-86
2023/03/27 00:28:07;;;;;;;28.23;13.93;;;;;;;;;;6281196;28;20013;-85
2023/03/27 00:31:11;;;;;;;28.60;13.63;;;;;;;;;;6275237;28;20558;-87
2023/03/27 00:34:12;;;;;;;31.60;15.32;;;;;;;;;;6293390;28;20048;-83
2023/03/27 00:37:12;;;;;;;29.10;13.37;;;;;;;;;;6289136;28;20021;-85
2023/03/27 00:40:14;;;;;;;27.07;12.90;;;;;;;;;;6276124;28;20039;-87
2023/03/27 00:43:15;;;;;;;;;;;;;;;;;;6292077;28;20017;-87
2023/03/27 00:46:27;;;;;;;28.40;15.40;;;;;;;;;;6291585;28;19915;-87
2023/03/27 00:49:29;;;;;;;35.35;15.10;;;;;;;;;;6294671;28;20021;-85
2023/03/27 00:52:30;;;;;;;29.75;13.48;;;;;;;;;;6292250;28;20517;-87
2023/03/27 00:55:30;;;;;;;32.53;19.17;;;;;;;;;;6294331;28;20045;-89
2023/03/27 00:58:34;;;;;;;31.13;17.13;;;;;;;;;;6289615;28;20025;-89
2023/03/27 01:01:35;;;;;;;35.10;18.45;;;;;;;;;;6294042;28;20372;-87
2023/03/27 01:04:36;;;;;;;28.17;16.73;;;;;;;;;;6298138;28;20039;-87
2023/03/27 01:07:38;;;;;;;29.60;15.65;;;;;;;;;;6295323;28;20027;-88
2023/03/27 01:11:01;;;;;;;28.02;16.23;;;;;;;;;;6299221;28;20066;-88
2023/03/27 01:14:08;;;;;;;34.47;16.38;;;;;;;;;;6298880;28;20026;-89
2023/03/27 01:17:22;;;;;;;25.45;14.68;;;;;;;;;;6281000;28;20035;-89
2023/03/27 01:20:33;;;;;;;30.48;15.00;;;;;;;;;;6292520;28;20024;-89
2023/03/27 01:23:33;;;;;;;28.20;15.65;;;;;;;;;;6293382;28;20016;-88
2023/03/27 01:26:37;;;;;;;23.55;13.60;;;;;;;;;;6291998;28;20067;-89
2023/03/27 01:29:58;;;;;;;26.90;14.27;;;;;;;;;;6294646;28;20475;-89
2023/03/27 01:33:09;;;;;;;29.58;15.93;;;;;;;;;;6296021;28;20028;-88
2023/03/27 01:36:35;;;;;;;31.95;16.73;;;;;;;;;;6300248;28;20026;-89
2023/03/27 01:39:45;;;;;;;31.60;16.70;;;;;;;;;;6278489;28;20518;-89
2023/03/27 01:42:48;;;;;;;26.77;15.48;;;;;;;;;;6298596;28;20073;-89
2023/03/27 01:45:57;;;;;;;21.52;13.32;;;;;;;;;;6297759;28;20035;-90
2023/03/27 01:49:06;;;;;;;25.88;12.30;;;;;;;;;;6281590;28;20028;-90
2023/03/27 01:52:11;;;;;;;20.55;11.25;;;;;;;;;;6299301;28;20072;-87
2023/03/27 01:55:17;;;;;;;29.48;13.63;;;;;;;;;;6315175;28;20016;-90
2023/03/27 01:58:21;;;;;;;29.95;14.75;;;;;;;;;;6327050;28;20033;-86
2023/03/27 02:01:26;;;;;;;25.63;12.75;;;;;;;;;;6330368;28;20036;-86
2023/03/27 02:04:38;;;;;;;24.52;13.32;;;;;;;;;;6306186;28;20048;-89
2023/03/27 02:07:41;;;;;;;26.92;14.20;;;;;;;;;;6320953;22;21693;-86
2023/03/27 02:10:45;;;;;;;26.73;13.15;;;;;;;;;;6273233;28;20017;-87
2023/03/27 02:13:54;;;;;;;24.98;13.10;;;;;;;;;;6280931;28;20071;-86
2023/03/27 02:16:56;;;;;;;20.17;11.75;;;;;;;;;;6253269;28;20024;-87
2023/03/27 02:19:59;;;;;;;23.17;12.50;;;;;;;;;;6280213;28;20032;-87
2023/03/27 02:23:00;;;;;;;24.77;13.27;;;;;;;;;;6261072;28;20631;-86
2023/03/27 02:26:01;;;;;;;23.63;13.15;;;;;;;;;;6260260;28;20025;-87
2023/03/27 02:29:20;;;;;;;28.80;12.90;;;;;;;;;;6255280;28;20024;-87
2023/03/27 02:32:32;;;;;;;29.00;12.80;;;;;;;;;;6280389;28;20009;-87
2023/03/27 02:35:43;;;;;;;22.60;12.50;;;;;;;;;;6272508;28;20048;-86
2023/03/27 02:38:53;;;;;;;21.17;12.88;;;;;;;;;;6283050;28;20032;-87
2023/03/27 02:42:12;;;;;;;25.42;15.00;;;;;;;;;;6276280;28;20020;-87
2023/03/27 02:45:23;;;;;;;28.30;16.63;;;;;;;;;;6286571;28;20036;-87
2023/03/27 02:48:33;;;;;;;33.15;18.30;;;;;;;;;;6263666;28;20021;-86
2023/03/27 02:51:44;;;;;;;27.98;17.50;;;;;;;;;;6260014;28;20043;-86
2023/03/27 02:54:49;;;;;;;32.40;17.83;;;;;;;;;;6280925;28;20030;-87
2023/03/27 02:57:52;;;;;;;40.97;22.50;;;;;;;;;;6274126;28;20470;-86
2023/03/27 03:00:53;;;;;;;30.92;17.00;;;;;;;;;;6251319;28;20028;-87
2023/03/27 03:04:06;;;;;;;32.33;17.50;;;;;;;;;;6259219;28;20071;-86
2023/03/27 03:07:07;;;;;;;36.92;19.95;;;;;;;;;;6277760;28;20493;-87
2023/03/27 03:10:10;;;;;;;37.13;17.83;;;;;;;;;;6247570;28;20053;-87
2023/03/27 03:13:10;;;;;;;39.65;19.25;;;;;;;;;;6272161;28;20048;-87
2023/03/27 03:16:10;;;;;;;41.07;23.27;;;;;;;;;;6253885;28;20029;-86
2023/03/27 03:19:11;;;;;;;38.27;20.97;;;;;;;;;;6266204;28;20102;-86
2023/03/27 03:22:13;;;;;;;32.17;17.53;;;;;;;;;;6272589;28;20111;-87
2023/03/27 03:25:13;;;;;;;27.08;14.88;;;;;;;;;;6266750;28;20139;-86
2023/03/27 03:28:17;;;;;;;29.57;15.70;;;;;;;;;;6271496;28;20036;-87
2023/03/27 03:31:17;;;;;;;28.00;15.20;;;;;;;;;;6272422;28;20506;-87
2023/03/27 03:34:17;;;;;;;31.43;16.93;;;;;;;;;;6271862;28;20028;-87
2023/03/27 03:37:18;;;;;;;27.70;15.47;;;;;;;;;;6235952;28;20028;-86
2023/03/27 03:40:20;;;;;;;30.15;16.00;;;;;;;;;;6271625;28;20608;-87
2023/03/27 03:43:21;;;;;;;38.05;16.98;;;;;;;;;;6271746;28;20021;-87
2023/03/27 03:46:21;;;;;;;31.63;18.23;;;;;;;;;;6272522;28;20200;-87
2023/03/27 03:49:21;;;;;;;27.03;17.23;;;;;;;;;;6257145;28;20475;-87
2023/03/27 03:52:21;;;;;;;31.97;18.50;;;;;;;;;;6247726;28;20021;-87
2023/03/27 03:55:24;;;;;;;34.33;17.50;;;;;;;;;;6270467;28;20082;-86
2023/03/27 03:58:24;;;;;;;31.02;18.33;;;;;;;;;;6270914;28;20460;-87
2023/03/27 04:01:24;;;;;;;31.60;19.70;;;;;;;;;;6270918;28;20064;-86
2023/03/27 04:04:25;;;;;;;35.90;17.57;;;;;;;;;;6252885;28;20358;-86
2023/03/27 04:07:30;;;;;;;33.80;19.27;;;;;;;;;;6274008;28;20017;-86
2023/03/27 04:10:30;;;;;;;32.85;18.27;;;;;;;;;;6270000;28;20163;-86
2023/03/27 04:13:30;;;;;;;34.80;17.77;;;;;;;;;;6259905;28;20495;-86
2023/03/27 04:16:31;;;;;;;38.80;20.67;;;;;;;;;;6258215;28;20033;-86
2023/03/27 04:19:31;;;;;;;33.50;18.00;;;;;;;;;;6277310;28;20029;-86
2023/03/27 04:22:36;;;;;;;33.17;16.47;;;;;;;;;;6270095;28;20027;-87
2023/03/27 04:25:37;;;;;;;30.67;17.27;;;;;;;;;;6237188;28;20028;-86
2023/03/27 04:28:38;;;;;;;31.33;18.60;;;;;;;;;;6252002;28;20492;-87
2023/03/27 04:31:38;;;;;;;31.02;18.63;;;;;;;;;;6231236;28;20037;-86
2023/03/27 04:34:41;;;;;;;31.67;17.17;;;;;;;;;;6249453;28;20029;-87
2023/03/27 04:38:01;;;;;;;31.20;17.25;;;;;;;;;;6264051;28;20044;-87
2023/03/27 04:41:02;;;;;;;35.38;18.80;;;;;;;;;;6268462;28;20029;-86
2023/03/27 04:44:03;;;;;;;37.07;19.87;;;;;;;;;;6266819;28;20021;-86
2023/03/27 04:47:05;;;;;;;27.33;16.67;;;;;;;;;;6229010;28;20805;-87
2023/03/27 04:50:06;;;;;;;32.40;16.85;;;;;;;;;;6250396;28;20496;-87
2023/03/27 04:53:07;;;;;;;30.30;17.97;;;;;;;;;;6270454;28;20025;-87
2023/03/27 04:56:08;;;;;;;28.47;15.53;;;;;;;;;;6249074;28;20111;-87
2023/03/27 04:59:08;;;;;;;25.87;14.10;;;;;;;;;;6269502;28;20052;-87
2023/03/27 05:02:09;;;;;;;22.90;13.83;;;;;;;;;;6248161;28;20032;-87
2023/03/27 05:05:10;;;;;;;16.98;9.23;;;;;;;;;;6262539;28;20029;-86
2023/03/27 05:08:10;;;;;;;19.37;11.43;;;;;;;;;;6269088;28;20041;-87
2023/03/27 05:11:11;;;;;;;23.20;15.53;;;;;;;;;;6248664;28;20479;-87
2023/03/27 05:14:13;;;;;;;28.80;16.07;;;;;;;;;;6251387;28;20103;-87
2023/03/27 05:17:15;;;;;;;24.15;14.85;;;;;;;;;;6268584;28;20017;-87
2023/03/27 05:20:15;;;;;;;21.55;12.10;;;;;;;;;;6253077;28;20036;-87
2023/03/27 05:23:16;;;;;;;23.27;12.70;;;;;;;;;;6251059;28;20021;-86
2023/03/27 05:26:16;;;;;;;19.47;12.67;;;;;;;;;;6251329;28;20027;-87
2023/03/27 05:29:16;;;;;;;21.60;12.37;;;;;;;;;;6266404;28;20486;-87
2023/03/27 05:32:16;;;;;;;20.57;12.43;;;;;;;;;;6250839;28;20079;-87
2023/03/27 05:35:18;;;;;;;22.97;13.23;;;;;;;;;;6275003;28;20031;-87
2023/03/27 05:38:18;;;;;;;21.83;12.77;;;;;;;;;;6298532;28;20008;-87
2023/03/27 05:41:19;;;;;;;33.23;13.57;;;;;;;;;;6279943;28;20485;-87
2023/03/27 05:44:20;;;;;;;20.93;11.80;;;;;;;;;;6268553;28;20076;-87
2023/03/27 05:47:20;;;;;;;24.73;14.10;;;;;;;;;;6251466;28;20032;-87
2023/03/27 05:50:22;;;;;;;25.77;12.63;;;;;;;;;;6251434;28;20021;-87
2023/03/27 05:53:23;;;;;;;28.27;14.38;;;;;;;;;;6252384;28;20017;-87
2023/03/27 05:56:23;;;;;;;21.70;12.77;;;;;;;;;;6255370;28;20024;-87
2023/03/27 05:59:23;;;;;;;21.10;12.57;;;;;;;;;;6255692;28;20017;-87
2023/03/27 06:02:24;;;;;;;20.87;12.90;;;;;;;;;;6254400;28;20032;-87
2023/03/27 06:05:28;;;;;;;20.00;13.00;;;;;;;;;;6254584;28;20040;-87
2023/03/27 06:08:28;;;;;;;21.65;12.00;;;;;;;;;;6256634;28;20081;-88
2023/03/27 06:11:29;;;;;;;24.37;13.07;;;;;;;;;;6257594;28;20024;-87
2023/03/27 06:14:29;;;;;;;24.03;11.93;;;;;;;;;;6273719;28;20040;-87
2023/03/27 06:17:30;;;;;;;21.90;12.37;;;;;;;;;;6274516;28;20047;-88
2023/03/27 06:20:34;;;;;;;17.20;10.70;;;;;;;;;;6273487;28;20100;-87
2023/03/27 06:23:34;;;;;;;18.55;10.85;;;;;;;;;;6272998;28;20031;-87
2023/03/27 06:26:34;;;;;;;18.10;11.67;;;;;;;;;;6255535;28;20037;-87
2023/03/27 06:29:36;;;;;;;19.57;13.40;;;;;;;;;;6276502;28;20463;-86
2023/03/27 06:32:36;;;;;;;23.27;12.37;;;;;;;;;;6273710;28;20067;-87
2023/03/27 06:35:38;;;;;;;25.43;12.93;;;;;;;;;;6271140;28;20029;-87
2023/03/27 06:38:38;;;;;;;26.58;16.15;;;;;;;;;;6253385;28;20475;-87
2023/03/27 06:41:38;;;;;;;22.90;14.10;;;;;;;;;;6267971;28;20036;-87
2023/03/27 06:44:39;;;;;;;25.23;15.60;;;;;;;;;;6254533;28;20028;-87
2023/03/27 06:47:39;;;;;;;19.33;12.83;;;;;;;;;;6246349;28;20026;-87
2023/03/27 06:50:39;;;;;;;22.10;13.77;;;;;;;;;;6267273;28;20036;-88
2023/03/27 06:53:40;;;;;;;28.23;15.07;;;;;;;;;;6255984;28;20062;-88
2023/03/27 06:56:40;;;;;;;22.03;13.73;;;;;;;;;;6257798;28;20029;-88
2023/03/27 06:59:40;;;;;;;24.08;14.38;;;;;;;;;;6258852;28;20024;-89
2023/03/27 07:02:41;;;;;;;25.67;14.40;;;;;;;;;;6262326;28;20028;-89
2023/03/27 07:05:41;;;;;;;24.87;15.23;;;;;;;;;;6255519;28;20269;-88
2023/03/27 07:08:41;;;;;;;28.40;16.70;;;;;;;;;;6256010;28;20100;-89
2023/03/27 07:11:42;;;;;;;30.00;16.60;;;;;;;;;;6266353;28;20021;-88
2023/03/27 07:14:42;;;;;;;27.00;16.70;;;;;;;;;;6261686;28;20371;-88
2023/03/27 07:17:43;;;;;;;30.33;16.20;;;;;;;;;;6251910;28;20387;-88
2023/03/27 07:20:44;;;;;;;29.33;16.77;;;;;;;;;;6262905;28;20074;-88
2023/03/27 07:23:45;;;;;;;26.23;15.10;;;;;;;;;;6263383;28;20005;-88
2023/03/27 07:26:45;;;;;;;26.70;16.37;;;;;;;;;;6259986;28;20563;-88
2023/03/27 07:29:45;;;;;;;31.30;17.77;;;;;;;;;;6257512;28;20024;-87
2023/03/27 07:32:45;;;;;;;29.00;17.17;;;;;;;;;;6274113;28;20147;-87
2023/03/27 07:35:47;;;;;;;25.07;16.60;;;;;;;;;;6253589;28;20021;-88
2023/03/27 07:38:47;;;;;;;25.17;15.02;;;;;;;;;;6263862;28;20017;-88
2023/03/27 07:41:47;;;;;;;27.33;16.80;;;;;;;;;;6255685;28;20450;-87
2023/03/27 07:44:47;;;;;;;25.33;15.47;;;;;;;;;;6275507;28;20024;-87
2023/03/27 07:47:49;;;;;;;25.50;14.90;;;;;;;;;;6272623;28;20475;-87
2023/03/27 07:50:49;;;;;;;27.75;14.65;;;;;;;;;;6270739;28;20544;-87
2023/03/27 07:53:55;;;;;;;21.93;14.60;;;;;;;;;;6249724;28;20013;-88
2023/03/27 07:56:55;;;;;;;25.33;15.85;;;;;;;;;;6255346;28;20017;-87
2023/03/27 07:59:56;;;;;;;27.37;13.90;;;;;;;;;;6254752;28;20032;-88
2023/03/27 08:03:06;;;;;;;28.80;15.70;;;;;;;;;;6254108;28;20030;-89
2023/03/27 08:06:07;;;;;;;27.92;15.70;;;;;;;;;;6282771;28;20047;-90
2023/03/27 08:09:07;;;;;;;26.87;15.60;;;;;;;;;;6257953;28;20088;-87
2023/03/27 08:12:08;;;;;;;25.03;15.10;;;;;;;;;;6247230;28;20041;-87
2023/03/27 08:15:08;;;;;;;26.17;16.13;;;;;;;;;;6249009;28;20353;-87
2023/03/27 08:18:10;;;;;;;35.90;18.30;;;;;;;;;;6247987;28;20053;-87
2023/03/27 08:21:11;;;;;;;30.55;19.38;;;;;;;;;;6246349;28;20375;-87
2023/03/27 08:24:11;;;;;;;29.27;20.07;;;;;;;;;;6249997;28;20021;-87
2023/03/27 08:27:11;;;;;;;33.27;20.40;;;;;;;;;;6248883;28;20284;-87
2023/03/27 08:30:13;;;;;;;38.17;23.30;;;;;;;;;;6249607;28;20025;-87
2023/03/27 08:33:13;;;;;;;40.70;25.45;;;;;;;;;;6264743;28;20018;-87
2023/03/27 08:36:14;;;;;;;40.13;23.70;;;;;;;;;;6246560;28;20056;-88
2023/03/27 08:39:14;;;;;;;35.00;23.07;;;;;;;;;;6249285;28;20112;-87
2023/03/27 08:42:16;;;;;;;44.63;27.33;;;;;;;;;;6247436;28;20013;-87
2023/03/27 08:45:33;;;;;;;42.63;24.88;;;;;;;;;;6248175;28;20028;-88
2023/03/27 08:48:33;;;;;;;41.80;24.70;;;;;;;;;;6243432;28;20013;-88
2023/03/27 08:51:42;;;;;;;43.67;26.57;;;;;;;;;;6250415;28;20029;-88
2023/03/27 08:54:44;;;;;;;48.10;29.50;;;;;;;;;;6249382;28;20026;-88
2023/03/27 08:57:45;;;;;;;55.60;31.38;;;;;;;;;;6252933;28;20019;-88
2023/03/27 09:00:50;;;;;;;57.80;36.27;;;;;;;;;;6248560;28;20022;-88
2023/03/27 09:04:07;;;;;;;55.47;34.08;;;;;;;;;;6252583;28;20014;-88
2023/03/27 09:07:26;;;;;;;52.47;32.25;;;;;;;;;;6250222;28;20024;-88
2023/03/27 09:10:45;;;;;;;54.20;28.65;;;;;;;;;;6250483;28;20046;-87
2023/03/27 09:13:50;;;;;;;45.80;25.85;;;;;;;;;;6244821;28;20025;-87
2023/03/27 09:16:50;;;;;;;46.55;27.13;;;;;;;;;;6238596;28;20040;-87
2023/03/27 09:19:50;;;;;;;36.07;24.20;;;;;;;;;;6262077;28;20009;-87
2023/03/27 09:22:56;;;;;;;35.87;18.77;;;;;;;;;;6274259;28;20009;-87
2023/03/27 09:26:03;;;;;;;33.08;18.45;;;;;;;;;;6262308;28;20421;-87
2023/03/27 09:29:21;;;;;;;34.78;18.27;;;;;;;;;;6260272;28;20018;-88
2023/03/27 09:32:21;;;;;;;30.27;16.10;;;;;;;;;;6258431;28;20076;-87
2023/03/27 09:35:22;;;;;;;26.13;16.63;;;;;;;;;;6256298;28;20475;-87
2023/03/27 09:38:32;;;;;;;21.60;14.90;;;;;;;;;;6255483;28;20597;-87
2023/03/27 09:41:43;;;;;;;32.30;15.82;;;;;;;;;;6254738;28;20032;-87
2023/03/27 09:44:45;;;;;;;27.07;15.40;;;;;;;;;;6255788;28;20073;-88
2023/03/27 09:47:57;;;;;;;29.20;17.85;;;;;;;;;;6256602;28;20014;-88
2023/03/27 09:50:57;;;;;;;31.05;16.35;;;;;;;;;;6259214;28;20052;-88
2023/03/27 09:53:57;;;;;;;23.77;14.77;;;;;;;;;;6257861;28;20013;-88
2023/03/27 09:57:02;;;;;;;25.77;14.10;;;;;;;;;;6258248;28;20131;-88
2023/03/27 10:00:32;;;;;;;24.73;14.68;;;;;;;;;;6255223;28;20036;-87
2023/03/27 10:03:36;;;;;;;25.23;14.30;;;;;;;;;;6259744;28;20582;-88
2023/03/27 10:06:47;;;;;;;27.63;14.25;;;;;;;;;;6251426;28;20131;-88
2023/03/27 10:10:01;;;;;;;22.20;11.98;;;;;;;;;;6275044;28;20108;-88
2023/03/27 10:13:02;;;;;;;23.50;12.07;;;;;;;;;;6264896;28;20013;-88
2023/03/27 10:16:04;;;;;;;14.70;9.38;;;;;;;;;;6264773;28;20053;-88
2023/03/27 10:19:05;;;;;;;19.60;8.57;;;;;;;;;;6284165;28;20063;-88
2023/03/27 10:22:15;;;;;;;15.20;8.00;;;;;;;;;;6258790;28;20024;-88
2023/03/27 10:25:18;;;;;;;20.42;9.02;;;;;;;;;;6261341;28;21279;-88
2023/03/27 10:28:18;;;;;;;20.20;10.63;;;;;;;;;;6262371;28;20475;-88
2023/03/27 10:31:27;;;;;;;17.03;9.37;;;;;;;;;;6265675;28;20047;-88
2023/03/27 10:34:29;;;;;;;18.23;10.13;;;;;;;;;;6266154;28;20052;-88
2023/03/27 10:37:29;;;;;;;;;;;;;;;;;;6272436;28;20025;-88
2023/03/27 10:40:31;;;;;;;19.23;12.30;;;;;;;;;;6282584;28;19923;-88
2023/03/27 10:43:36;;;;;;;17.10;10.20;;;;;;;;;;6259953;28;20292;-88
2023/03/27 10:46:38;;;;;;;15.18;10.95;;;;;;;;;;6263363;28;20021;-88
2023/03/27 10:49:38;;;;;;;;;;;;;;;;;;6259455;28;20082;-88
2023/03/27 10:52:44;;;;;;;13.02;8.68;;;;;;;;;;6260759;28;19908;-88
2023/03/27 10:55:47;;;;;;;13.00;7.03;;;;;;;;;;6278405;28;20031;-87
2023/03/27 10:58:50;;;;;;;14.20;7.10;;;;;;;;;;6257799;28;20522;-87
2023/03/27 11:01:54;;;;;;;11.95;6.70;;;;;;;;;;6261608;28;20020;-87
2023/03/27 11:04:59;;;;;;;9.18;7.15;;;;;;;;;;6263943;28;20009;-88
2023/03/27 11:08:00;;;;;;;8.25;6.35;;;;;;;;;;6297286;28;20037;-88
2023/03/27 11:11:06;;;;;;;9.23;5.87;;;;;;;;;;6283471;28;20035;-88
2023/03/27 11:14:10;;;;;;;9.77;6.95;;;;;;;;;;6283063;28;20023;-88
2023/03/27 11:17:14;;;;;;;14.23;7.72;;;;;;;;;;6282722;28;20001;-88
2023/03/27 11:20:30;;;;;;;10.95;5.75;;;;;;;;;;6282010;28;20017;-88
2023/03/27 11:23:38;;;;;;;12.45;6.18;;;;;;;;;;6280412;28;20024;-87
2023/03/27 11:27:08;;;;;;;10.95;6.15;;;;;;;;;;6283984;28;20001;-88
2023/03/27 11:30:17;;;;;;;8.73;5.50;;;;;;;;;;6270785;28;20014;-88
2023/03/27 11:33:26;;;;;;;9.18;5.93;;;;;;;;;;6283663;28;20213;-88
2023/03/27 11:36:40;;;;;;;7.65;4.97;;;;;;;;;;6283964;28;20027;-88
2023/03/27 11:39:41;;;;;;;7.38;5.03;;;;;;;;;;6282328;28;20062;-88
2023/03/27 11:42:43;;;;;;;13.10;6.70;;;;;;;;;;6282788;28;20005;-88
2023/03/27 11:45:47;;;;;;;6.65;4.03;;;;;;;;;;6281849;28;20060;-88
2023/03/27 11:48:47;;;;;;;7.63;4.85;;;;;;;;;;6297253;28;20017;-88
2023/03/27 11:51:56;;;;;;;5.73;4.23;;;;;;;;;;6280254;28;20025;-88
2023/03/27 11:54:57;;;;;;;12.10;5.25;;;;;;;;;;6279261;28;20032;-88
2023/03/27 11:58:06;;;;;;;11.17;6.90;;;;;;;;;;6298672;28;20105;-88
2023/03/27 12:01:20;;;;;;;8.30;5.70;;;;;;;;;;6263131;28;20294;-88
2023/03/27 12:04:24;;;;;;;8.77;5.32;;;;;;;;;;6260449;28;20483;-88
2023/03/27 12:07:33;;;;;;;10.68;6.25;;;;;;;;;;6263932;28;20021;-88
2023/03/27 12:10:34;;;;;;;6.53;4.22;;;;;;;;;;6267184;28;20037;-89
2023/03/27 12:13:47;;;;;;;11.55;5.53;;;;;;;;;;6262287;28;20114;-89
2023/03/27 12:17:06;;;;;;;8.18;4.82;;;;;;;;;;6270412;28;20115;-88
2023/03/27 12:20:36;;;;;;;5.70;4.57;;;;;;;;;;6282812;28;20024;-89
2023/03/27 12:23:42;;;;;;;5.18;3.65;;;;;;;;;;6255543;28;20136;-88
2023/03/27 12:26:42;;;;;;;6.82;4.07;;;;;;;;;;6260356;28;20017;-88
2023/03/27 12:29:43;;;;;;;9.30;4.77;;;;;;;;;;6279323;28;20582;-88
2023/03/27 12:33:01;;;;;;;18.77;10.07;;;;;;;;;;6260058;28;20394;-88
2023/03/27 12:36:04;;;;;;;8.73;5.50;;;;;;;;;;6256819;28;20037;-88
2023/03/27 12:39:16;;;;;;;11.27;5.28;;;;;;;;;;6255606;28;20487;-88
2023/03/27 12:42:36;;;;;;;20.48;9.07;;;;;;;;;;6259758;28;20056;-88
2023/03/27 12:45:37;;;;;;;8.75;5.82;;;;;;;;;;6263490;28;20024;-88
2023/03/27 12:48:53;;;;;;;19.93;8.60;;;;;;;;;;6259665;28;20039;-88
2023/03/27 12:51:53;;;;;;;20.25;8.93;;;;;;;;;;6262863;28;20025;-89
2023/03/27 12:55:06;;;;;;;10.03;5.57;;;;;;;;;;6264801;28;20028;-89
2023/03/27 12:58:08;;;;;;;18.92;8.85;;;;;;;;;;6260563;28;20075;-88
2023/03/27 13:01:10;;;;;;;7.72;4.90;;;;;;;;;;6285657;28;20546;-88
2023/03/27 13:04:14;;;;;;;7.97;4.45;;;;;;;;;;6265820;28;20434;-88
2023/03/27 13:07:35;;;;;;;8.13;4.88;;;;;;;;;;6282512;28;20043;-89
2023/03/27 13:10:54;;;;;;;6.90;3.85;;;;;;;;;;6308650;28;20060;-88
2023/03/27 13:14:13;;;;;;;7.80;4.60;;;;;;;;;;6282251;28;20533;-88
2023/03/27 13:17:37;;;;;;;4.95;3.63;;;;;;;;;;6262175;28;20029;-89
2023/03/27 13:20:45;;;;;;;6.38;3.70;;;;;;;;;;6269949;28;20459;-89
2023/03/27 13:23:49;;;;;;;9.13;4.25;;;;;;;;;;6264976;28;20059;-89
2023/03/27 13:26:56;;;;;;;11.45;6.95;;;;;;;;;;6270741;28;20017;-89
2023/03/27 13:29:56;;;;;;;7.22;3.63;;;;;;;;;;6267657;28;20051;-89
2023/03/27 13:33:22;;;;;;;13.60;8.93;;;;;;;;;;6266142;28;20017;-88
2023/03/27 13:36:23;;;;;;;11.88;5.53;;;;;;;;;;6261116;28;20032;-89
2023/03/27 13:39:23;;;;;;;10.10;5.23;;;;;;;;;;6266703;28;20043;-89
2023/03/27 13:42:30;;;;;;;7.90;4.13;;;;;;;;;;6266289;28;20028;-88
2023/03/27 13:45:30;;;;;;;5.57;3.42;;;;;;;;;;6263480;28;20021;-89
2023/03/27 13:48:34;;;;;;;6.47;3.95;;;;;;;;;;6267087;28;20021;-88
2023/03/27 13:51:53;;;;;;;4.22;3.20;;;;;;;;;;6265389;28;20039;-89
2023/03/27 13:54:59;;;;;;;7.35;3.28;;;;;;;;;;6282141;28;20029;-89
2023/03/27 13:58:14;;;;;;;8.27;3.38;;;;;;;;;;6271952;28;20521;-89
2023/03/27 14:01:32;;;;;;;6.03;3.67;;;;;;;;;;6267771;28;20395;-88
2023/03/27 14:04:45;;;;;;;3.58;2.53;;;;;;;;;;6267458;28;20021;-89
2023/03/27 14:08:04;;;;;;;5.43;2.78;;;;;;;;;;6267170;28;20453;-89
2023/03/27 14:11:22;;;;;;;5.75;2.95;;;;;;;;;;6261094;28;20057;-89
2023/03/27 14:14:41;;;;;;;5.20;2.90;;;;;;;;;;6266166;28;20024;-89
2023/03/27 14:17:45;;;;;;;5.22;2.85;;;;;;;;;;6266385;28;20020;-88
2023/03/27 14:20:47;;;;;;;11.45;3.35;;;;;;;;;;6263435;28;20024;-89
2023/03/27 14:23:51;;;;;;;5.45;2.95;;;;;;;;;;6269241;28;20112;-89
2023/03/27 14:26:52;;;;;;;7.18;3.55;;;;;;;;;;6262761;28;20428;-89
2023/03/27 14:30:03;;;;;;;7.18;3.53;;;;;;;;;;6265907;28;20021;-89
2023/03/27 14:33:05;;;;;;;8.73;3.47;;;;;;;;;;6264620;28;20062;-89
2023/03/27 14:36:05;;;;;;;12.15;6.53;;;;;;;;;;6267831;28;20036;-89
2023/03/27 14:39:17;;;;;;;10.17;4.67;;;;;;;;;;6261825;28;20029;-89
2023/03/27 14:42:17;;;;;;;15.20;6.50;;;;;;;;;;6262789;28;20470;-89
2023/03/27 14:45:22;;;;;;;7.60;3.77;;;;;;;;;;6269519;28;20025;-89
2023/03/27 14:48:40;;;;;;;7.75;3.88;;;;;;;;;;6271990;28;20017;-88
2023/03/27 14:51:46;;;;;;;8.13;4.25;;;;;;;;;;6284036;28;20036;-88
2023/03/27 14:54:49;;;;;;;5.70;3.25;;;;;;;;;;6266460;28;20052;-88
2023/03/27 14:57:50;;;;;;;9.00;4.07;;;;;;;;;;6270888;28;20048;-89
2023/03/27 15:00:55;;;;;;;5.45;2.85;;;;;;;;;;6255226;28;20033;-88
2023/03/27 15:03:55;;;;;;;6.43;3.05;;;;;;;;;;6270653;28;20074;-89
2023/03/27 15:07:13;;;;;;;8.27;4.47;;;;;;;;;;6267014;28;20024;-89
2023/03/27 15:10:16;;;;;;;12.30;4.57;;;;;;;;;;6255834;28;20459;-89
2023/03/27 15:13:16;;;;;;;7.75;3.63;;;;;;;;;;6261907;28;20369;-89
2023/03/27 15:16:21;;;;;;;8.80;4.13;;;;;;;;;;6260112;28;20095;-88
2023/03/27 15:19:25;;;;;;;4.90;3.58;;;;;;;;;;6257496;28;20140;-89
2023/03/27 15:22:46;;;;;;;7.75;4.25;;;;;;;;;;6259831;28;20021;-89
2023/03/27 15:25:54;;;;;;;7.20;3.78;;;;;;;;;;6257372;28;20067;-89
2023/03/27 15:29:07;;;;;;;7.65;3.20;;;;;;;;;;6243271;28;20040;-88
2023/03/27 15:32:13;;;;;;;6.60;3.53;;;;;;;;;;6252798;28;20028;-88
2023/03/27 15:35:20;;;;;;;10.02;3.97;;;;;;;;;;6246466;28;20029;-88
2023/03/27 15:38:27;;;;;;;9.13;3.30;;;;;;;;;;6246459;28;20080;-89
2023/03/27 15:41:31;;;;;;;6.22;3.45;;;;;;;;;;6252357;28;20025;-88
2023/03/27 15:44:32;;;;;;;6.53;4.03;;;;;;;;;;6246173;28;20077;-87
2023/03/27 15:47:32;;;;;;;5.57;2.77;;;;;;;;;;6247532;28;20419;-88
2023/03/27 15:50:32;;;;;;;11.40;4.47;;;;;;;;;;6248789;28;20017;-88
2023/03/27 15:53:37;;;;;;;6.57;2.87;;;;;;;;;;6251804;28;20029;-89
2023/03/27 15:56:43;;;;;;;4.05;2.22;;;;;;;;;;6256156;28;20021;-88
2023/03/27 15:59:44;;;;;;;4.40;2.58;;;;;;;;;;6261558;28;20127;-89
2023/03/27 16:02:45;;;;;;;3.53;2.27;;;;;;;;;;6252945;28;20043;-90
2023/03/27 16:05:46;;;;;;;7.63;3.50;;;;;;;;;;6256653;28;20029;-89
2023/03/27 16:08:46;;;;;;;4.90;2.33;;;;;;;;;;6255500;28;20080;-89
2023/03/27 16:11:47;;;;;;;5.33;2.33;;;;;;;;;;6248091;28;20064;-88
2023/03/27 16:14:47;;;;;;;7.20;2.80;;;;;;;;;;6249274;28;20059;-88
2023/03/27 16:17:49;;;;;;;4.50;2.27;;;;;;;;;;6248412;28;20638;-88
2023/03/27 16:20:49;;;;;;;7.25;3.60;;;;;;;;;;6245286;28;20037;-88
2023/03/27 16:23:49;;;;;;;4.13;2.80;;;;;;;;;;6246055;28;20531;-88
2023/03/27 16:26:50;;;;;;;8.60;3.10;;;;;;;;;;6245483;28;20498;-88
2023/03/27 16:29:50;;;;;;;6.07;2.37;;;;;;;;;;6244530;28;20032;-87
2023/03/27 16:32:54;;;;;;;14.77;5.00;;;;;;;;;;6241853;28;20561;-88
2023/03/27 16:35:58;;;;;;;7.07;3.58;;;;;;;;;;6232786;28;20024;-88
2023/03/27 16:39:03;;;;;;;4.95;2.60;;;;;;;;;;6244976;28;20505;-87
2023/03/27 16:42:03;;;;;;;4.38;3.00;;;;;;;;;;6244234;28;20084;-88
2023/03/27 16:45:04;;;;;;;3.97;2.73;;;;;;;;;;6240811;28;20018;-88
2023/03/27 16:48:05;;;;;;;8.33;3.67;;;;;;;;;;6239539;28;20006;-88
2023/03/27 16:51:05;;;;;;;6.38;2.92;;;;;;;;;;6243651;28;20125;-88
2023/03/27 16:54:06;;;;;;;4.43;2.53;;;;;;;;;;6237878;28;20037;-88
2023/03/27 16:57:06;;;;;;;7.37;4.10;;;;;;;;;;6243895;28;20052;-87
2023/03/27 17:00:08;;;;;;;7.33;2.90;;;;;;;;;;6268930;28;20037;-88
2023/03/27 17:03:08;;;;;;;10.02;4.13;;;;;;;;;;6276703;28;20044;-88
2023/03/27 17:06:10;;;;;;;4.63;2.83;;;;;;;;;;6256902;28;20034;-87
2023/03/27 17:09:11;;;;;;;10.52;3.33;;;;;;;;;;6242661;28;20045;-88
2023/03/27 17:12:11;;;;;;;7.05;3.55;;;;;;;;;;6243432;28;20045;-87
2023/03/27 17:15:13;;;;;;;6.83;3.07;;;;;;;;;;6241607;28;20111;-86
2023/03/27 17:18:14;;;;;;;7.82;3.30;;;;;;;;;;6242530;28;20108;-90
2023/03/27 17:21:15;;;;;;;7.57;3.23;;;;;;;;;;6243139;28;20225;-88
2023/03/27 17:24:18;;;;;;;6.53;3.17;;;;;;;;;;6240906;28;20011;-87
2023/03/27 17:27:19;;;;;;;10.98;3.50;;;;;;;;;;6241872;28;20042;-87
2023/03/27 17:30:19;;;;;;;8.43;3.40;;;;;;;;;;6242168;28;20549;-86
2023/03/27 17:33:19;;;;;;;17.43;8.73;;;;;;;;;;6244865;28;20017;-87
2023/03/27 17:36:20;;;;;;;7.20;3.38;;;;;;;;;;6250208;28;20108;-87
2023/03/27 17:39:21;;;;;;;13.63;7.28;;;;;;;;;;6255082;28;20021;-88
2023/03/27 17:42:22;;;;;;;14.23;6.40;;;;;;;;;;6247651;28;20020;-88
2023/03/27 17:45:23;;;;;;;6.18;3.75;;;;;;;;;;6249237;28;20024;-87
2023/03/27 17:48:23;;;;;;;6.97;3.60;;;;;;;;;;6238769;28;20010;-86
2023/03/27 17:51:23;;;;;;;11.80;7.10;;;;;;;;;;6254262;28;20388;-87
2023/03/27 17:54:24;;;;;;;15.83;7.63;;;;;;;;;;6263107;28;20022;-87
2023/03/27 17:57:24;;;;;;;13.90;7.33;;;;;;;;;;6251442;28;20051;-88
2023/03/27 18:00:24;;;;;;;13.50;5.87;;;;;;;;;;6251920;28;20544;-87
2023/03/27 18:03:25;;;;;;;11.87;5.30;;;;;;;;;;6252131;28;20022;-87